• Join FlightAware (Why Join?)
  • Login
  • US Flag 
11:37AM EDT


 

Airport Tracker/Info


-or-


 

Live Flight TrackerFlight Track Log ✈ SKW5550 ✈ 14-Oct-2013 ✈ KDEN - KSMF

Flight Track Log - Related Links

Times and Time Zones

All times are in EDT time to prevent confusion due to time zone crossing. See the SKW5550 flight status page for this flight to view local times or setup timezone preferences in your user account.

Time Position Orientation Groundspeed Altitude Reporting Facility
EDT Latitude Longitude Course Direction KTS MPH feet Rate Location/Type
05:54PM 39.9333 -104.7000 270° West 202 232 7,400  Level Denver TRACON
05:55PM 39.9333 -104.8000 270° West 249 287 10,000 2,160 Climbing Denver TRACON
05:56PM 39.9167 -104.8833 255° West 265 305 11,800 1,620 Climbing Denver TRACON
05:57PM 39.8975 -104.9375 245° Southwest 277 319 12,500 1,080 Climbing Denver Center
05:58PM 39.8728 -105.0456 253° West 308 354 13,600 1,560 Climbing Denver Center
05:59PM 39.8708 -105.1783 269° West 338 389 15,800 1,740 Climbing Denver Center
06:00PM 39.8875 -105.2953 281° West 336 387 17,200 1,260 Climbing Denver Center
06:01PM 39.9153 -105.4239 286° West 346 398 18,500 1,260 Climbing Denver Center
06:02PM 39.9172 -105.5500 271° West 368 423 19,800 1,080 Climbing Denver Center
06:03PM 39.8825 -105.6756 250° West 375 432 20,800 1,380 Climbing Denver Center
06:04PM 39.8428 -105.8114 249° West 374 430 22,700 1,500 Climbing Denver Center
06:05PM 39.8217 -105.9297 257° West 352 405 24,000 960 Climbing Denver Center
06:06PM 39.7992 -106.0578 257° West 361 415 24,700 660 Climbing Denver Center
06:07PM 39.8142 -106.1922 278° West 378 435 25,400 660 Climbing Denver Center
06:08PM 39.8333 -106.3275 280° West 383 441 26,100 720 Climbing Denver Center
06:09PM 39.8114 -106.4931 260° West 385 443 27,000 840 Climbing Denver Center
06:10PM 39.7994 -106.6319 264° West 390 449 27,900 780 Climbing Denver Center
06:11PM 39.7983 -106.7664 269° West 378 435 28,700 600 Climbing Denver Center
06:12PM 39.8128 -106.9017 278° West 381 438 29,200 540 Climbing Denver Center
06:13PM 39.8306 -107.0367 280° West 382 440 29,900 780 Climbing Denver Center
06:14PM 39.8461 -107.1697 279° West 375 432 30,900 780 Climbing Denver Center
06:15PM 39.8614 -107.3069 278° West 358 412 31,600 480 Climbing Denver Center
06:16PM 39.8781 -107.4511 279° West 360 414 32,000 180 Climbing Denver Center
06:17PM 39.8919 -107.5767 278° West 365 420 32,000  Level Denver Center
06:18PM 39.9092 -107.7286 278° West 378 435 32,000  Level Denver Center
06:19PM 39.9242 -107.8617 278° West 386 444 32,000  Level Denver Center
06:20PM 39.9386 -107.9967 278° West 393 452 32,000  Level Denver Center
06:21PM 39.9572 -108.1553 279° West 397 457 32,000  Level Denver Center
06:22PM 39.9722 -108.2939 278° West 403 464 32,000  Level Denver Center
06:23PM 39.9894 -108.4542 278° West 403 464 32,000  Level Denver Center
06:24PM 40.0033 -108.5908 278° West 400 460 32,000  Level Denver Center
06:25PM 40.0197 -108.7486 278° West 397 457 32,000  Level Denver Center
06:26PM 40.0331 -108.8836 277° West 395 455 32,000  Level Denver Center
06:27PM 40.0489 -109.0394 278° West 391 450 32,000  Level Denver Center
06:28PM 40.0603 -109.1514 278° West 392 451 32,000  Level Salt Lake Center
06:29PM 40.0733 -109.2850 277° West 390 449 32,000  Level Salt Lake Center
06:30PM 40.0883 -109.4433 277° West 393 452 32,000  Level Salt Lake Center
06:31PM 40.1019 -109.5794 277° West 396 456 32,000  Level Salt Lake Center
06:32PM 40.1175 -109.7394 277° West 397 457 32,000  Level Salt Lake Center
06:33PM 40.1308 -109.8769 277° West 399 459 32,000  Level Salt Lake Center
06:34PM 40.1436 -110.0147 277° West 399 459 32,000  Level Salt Lake Center
06:35PM 40.1575 -110.1761 276° West 400 460 32,000  Level Salt Lake Center
06:36PM 40.1703 -110.3147 277° West 401 461 32,000  Level Salt Lake Center
06:38PM 40.1853 -110.4778 277° West 404 465 32,000  Level Salt Lake Center
06:39PM 40.1972 -110.6164 276° West 403 464 32,000  Level Salt Lake Center
06:40PM 40.2108 -110.7792 276° West 402 463 32,000  Level Salt Lake Center
06:41PM 40.2239 -110.9175 277° West 400 460 32,000  Level Salt Lake Center
06:42PM 40.2347 -111.0542 276° West 401 461 32,000  Level Salt Lake Center
06:43PM 40.2467 -111.1992 276° West 401 461 32,000  Level Salt Lake Center
06:44PM 40.2611 -111.3736 276° West 402 463 32,000  Level Salt Lake Center
06:45PM 40.2725 -111.5197 276° West 403 464 32,000  Level Salt Lake Center
06:46PM 40.2847 -111.6664 276° West 405 466 32,000  Level Salt Lake Center
06:47PM 40.2964 -111.8175 276° West 415 478 32,000  Level Salt Lake Center
06:48PM 40.3072 -111.9622 276° West 403 464 32,000  Level Salt Lake Center
06:49PM 40.3178 -112.1117 275° West 406 467 32,000  Level Salt Lake Center
06:50PM 40.3278 -112.2594 275° West 406 467 32,000  Level Salt Lake Center
06:51PM 40.3389 -112.4064 276° West 403 464 32,000  Level Salt Lake Center
06:52PM 40.3517 -112.5833 275° West 405 466 32,000  Level Salt Lake Center
06:53PM 40.3614 -112.7311 275° West 408 470 32,000  Level Salt Lake Center
06:54PM 40.3717 -112.8778 275° West 406 467 32,000  Level Salt Lake Center
06:55PM 40.3811 -113.0244 275° West 405 466 32,000  Level Salt Lake Center
06:56PM 40.3917 -113.1692 276° West 400 460 32,000  Level Salt Lake Center
06:57PM 40.4008 -113.3161 275° West 404 465 32,000  Level Salt Lake Center
06:58PM 40.4103 -113.4633 275° West 405 466 32,000  Level Salt Lake Center
06:59PM 40.4183 -113.6100 274° West 404 465 32,000  Level Salt Lake Center
07:00PM 40.4300 -113.7853 275° West 403 464 32,000  Level Salt Lake Center
07:01PM 40.4386 -113.9303 275° West 400 460 32,000  Level Salt Lake Center
07:02PM 40.4450 -114.0753 273° West 400 460 32,000  Level Salt Lake Center
07:03PM 40.4522 -114.2200 274° West 399 459 32,000  Level Salt Lake Center
07:04PM 40.4608 -114.3658 274° West 401 461 32,000  Level Salt Lake Center
07:05PM 40.4675 -114.5111 273° West 401 461 32,000  Level Salt Lake Center
07:06PM 40.4753 -114.6561 274° West 400 460 32,000  Level Salt Lake Center
07:07PM 40.4844 -114.8258 274° West 399 459 32,000  Level Salt Lake Center
07:08PM 40.4917 -114.9650 274° West 400 460 32,000  Level Salt Lake Center
07:09PM 40.5017 -115.1283 275° West 401 461 32,000  Level Salt Lake Center
07:10PM 40.5047 -115.2669 272° West 398 458 32,000  Level Salt Lake Center
07:11PM 40.5106 -115.4044 273° West 395 455 32,000  Level Salt Lake Center
07:12PM 40.5161 -115.5644 273° West 394 453 32,000  Level Salt Lake Center
07:13PM 40.5236 -115.7006 274° West 392 451 32,000  Level Salt Lake Center
07:15PM 40.5303 -115.8567 273° West 385 443 32,000  Level Salt Lake Center
07:16PM 40.5358 -115.9889 273° West 381 438 32,000  Level Salt Lake Center
07:17PM 40.5422 -116.1200 274° West 378 435 32,000  Level Salt Lake Center
07:18PM 40.5478 -116.2722 273° West 375 432 32,000  Level Salt Lake Center
07:19PM 40.5517 -116.4022 272° West 372 428 32,000  Level Salt Lake Center
07:20PM 40.5572 -116.5544 273° West 374 430 32,000  Level Salt Lake Center
07:21PM 40.5622 -116.6850 273° West 377 434 32,000  Level Salt Lake Center
07:22PM 40.5661 -116.8383 272° West 379 436 32,000  Level Salt Lake Center
07:23PM 40.5436 -116.9700 257° West 410 472 32,000  Level Salt Lake Center
07:24PM 40.4925 -117.1225 246° West 414 476 32,000  Level Salt Lake Center
07:25PM 40.4458 -117.2536 245° Southwest 416 479 32,000  Level Salt Lake Center
07:26PM 40.3908 -117.4075 245° Southwest 418 481 32,000  Level Salt Lake Center
07:27PM 40.3425 -117.5397 244° Southwest 420 483 32,000  Level Salt Lake Center
07:28PM 40.2933 -117.6725 244° Southwest 423 487 32,000  Level Salt Lake Center
07:29PM 40.2350 -117.8283 244° Southwest 427 491 32,000  Level Salt Lake Center
07:30PM 40.1806 -117.9781 245° Southwest 426 490 32,000  Level Oakland Center
07:31PM 40.1278 -118.1183 244° Southwest 431 496 32,000  Level Oakland Center
07:32PM 40.0750 -118.2572 244° Southwest 428 493 32,000  Level Oakland Center
07:33PM 40.0214 -118.3964 243° Southwest 431 496 32,000  Level Oakland Center
07:34PM 39.9686 -118.5353 244° Southwest 430 495 32,000  Level Oakland Center
07:35PM 39.9150 -118.6753 244° Southwest 432 497 32,000  Level Oakland Center
07:36PM 39.8617 -118.8128 243° Southwest 431 496 32,000 -180 Level Oakland Center
07:37PM 39.8092 -118.9511 244° Southwest 431 496 31,700 -780 Descending Oakland Center
07:38PM 39.7411 -119.1219 243° Southwest 446 513 30,500 -1,320 Descending Oakland Center
07:39PM 39.6847 -119.2669 243° Southwest 451 519 29,100 -1,380 Descending Oakland Center
07:40PM 39.6269 -119.4103 242° Southwest 452 520 27,700 -1,380 Descending Oakland Center
07:41PM 39.5700 -119.5561 243° Southwest 454 522 26,300 -1,380 Descending Oakland Center
07:42PM 39.5067 -119.6992 240° Southwest 458 527 24,900 -1,320 Descending Oakland Center
07:43PM 39.4397 -119.8419 239° Southwest 464 534 23,700 -1,200 Descending Oakland Center
07:44PM 39.3897 -119.9889 246° West 452 520 22,500 -1,260 Descending Oakland Center
07:45PM 39.3372 -120.1406 246° West 441 507 21,200 -1,260 Descending Oakland Center
07:46PM 39.2881 -120.2811 246° West 432 497 20,000 -1,200 Descending Oakland Center
07:47PM 39.2386 -120.4225 246° West 433 498 18,800 -1,380 Descending Oakland Center
07:48PM 39.1875 -120.5589 244° Southwest 427 491 17,200 -2,280 Descending Oakland Center
07:49PM 39.1317 -120.7183 246° West 412 474 14,200 -2,880 Descending Oakland Center
07:50PM 39.0953 -120.8411 249° West 374 430 11,400 -2,100 Descending Oakland Center
07:51PM 39.0678 -120.9567 253° West 346 398 10,000 -720 Descending Oakland Center
07:52PM 39.0464 -121.0558 255° West 295 339 10,000  Level Oakland Center
07:53PM 39.0333 -121.1333 258° West 289 333 10,000  Level Northern Cal TRACON
07:54PM 39.0000 -121.2333 247° West 288 331 10,000 -780 Level Northern Cal TRACON
07:55PM 38.9833 -121.3333 258° West 289 333 8,500 -1,740 Descending Northern Cal TRACON
07:56PM 38.9667 -121.4333 258° West 284 327 6,600 -1,260 Descending Northern Cal TRACON
07:57PM 38.9333 -121.5333 247° West 279 321 6,000 -420 Descending Northern Cal TRACON
07:58PM 38.9167 -121.6167 256° West 286 329 5,800 -600 Descending Northern Cal TRACON
07:59PM 38.8500 -121.6500 201° Southwest 267 307 4,800 -1,020 Descending Northern Cal TRACON
08:00PM 38.7833 -121.6833 201° Southwest 265 305 3,800 -900 Descending Northern Cal TRACON
08:01PM 38.7000 -121.6833 180° South 256 295 3,000 -420 Descending Northern Cal TRACON
08:02PM 38.6333 -121.6667 169° South 225 259 3,000 -360 Level Northern Cal TRACON
08:03PM 38.6000 -121.6333 142° Southeast 198 228 2,300 -660 Descending Northern Cal TRACON
08:04PM 38.6167 -121.5833 67° East 166 191 1,700 -840 Descending Northern Cal TRACON
08:05PM 38.6500 -121.5833 360° North 143 165 700 -1,020 Descending Northern Cal TRACON